createdAt,value
2022-08-26T00:00:01.283Z,9.33
2022-08-26T00:02:03.690Z,10.20
2022-08-26T00:04:06.951Z,8.60
2022-08-26T00:06:10.390Z,9.03
2022-08-26T00:08:16.769Z,9.70
2022-08-26T00:10:20.693Z,9.90
2022-08-26T00:12:34.366Z,9.50
2022-08-26T00:14:40.883Z,9.53
2022-08-26T00:16:48.161Z,9.53
2022-08-26T00:18:54.140Z,9.47
2022-08-26T00:20:56.195Z,9.40
2022-08-26T00:22:58.562Z,9.37
2022-08-26T00:25:02.711Z,10.80
2022-08-26T00:27:08.369Z,9.60
2022-08-26T00:29:13.341Z,10.17
2022-08-26T00:31:16.034Z,9.23
2022-08-26T00:33:19.943Z,11.07
2022-08-26T00:35:23.505Z,9.70
2022-08-26T00:37:25.706Z,9.80
2022-08-26T00:39:27.440Z,9.23
2022-08-26T00:41:30.200Z,9.10
2022-08-26T00:43:46.107Z,10.23
2022-08-26T00:46:09.740Z,9.90
2022-08-26T00:48:12.517Z,9.97
2022-08-26T00:50:20.189Z,9.23
2022-08-26T00:52:23.718Z,9.57
2022-08-26T00:54:32.244Z,9.90
2022-08-26T00:56:47.008Z,11.90
2022-08-26T00:58:51.720Z,11.03
2022-08-26T01:00:54.012Z,10.50
2022-08-26T01:02:57.884Z,9.87
2022-08-26T01:05:03.431Z,10.00
2022-08-26T01:07:07.374Z,9.77
2022-08-26T01:09:10.760Z,9.90
2022-08-26T01:11:12.935Z,10.10
2022-08-26T01:13:15.731Z,9.50
2022-08-26T01:15:24.590Z,11.10
2022-08-26T01:17:26.527Z,9.70
2022-08-26T01:19:33.906Z,9.87
2022-08-26T01:21:54.943Z,11.20
2022-08-26T01:23:57.902Z,10.20
2022-08-26T01:26:18.242Z,10.80
2022-08-26T01:28:27.370Z,10.83
2022-08-26T01:30:31.769Z,10.70
2022-08-26T01:32:36.204Z,10.70
2022-08-26T01:34:41.184Z,10.63
2022-08-26T01:36:45.962Z,10.70
2022-08-26T01:38:51.265Z,10.50
2022-08-26T01:40:53.640Z,10.40
2022-08-26T01:42:56.895Z,10.30
2022-08-26T01:45:12.102Z,10.60
2022-08-26T01:47:16.625Z,10.20
2022-08-26T01:49:21.901Z,10.20
2022-08-26T01:51:26.339Z,11.50
2022-08-26T01:53:28.821Z,10.10
2022-08-26T01:55:32.936Z,9.83
2022-08-26T01:57:36.074Z,10.90
2022-08-26T01:59:38.790Z,10.93
2022-08-26T02:01:41.469Z,9.70
2022-08-26T02:04:10.822Z,10.60
2022-08-26T02:06:12.961Z,11.10
2022-08-26T02:08:24.641Z,10.80
2022-08-26T02:10:27.771Z,10.50
2022-08-26T02:12:31.134Z,10.70
2022-08-26T02:14:43.941Z,10.40
2022-08-26T02:16:48.916Z,10.03
2022-08-26T02:18:53.803Z,10.40
2022-08-26T02:20:56.944Z,10.70
2022-08-26T02:22:58.860Z,10.73
2022-08-26T02:25:20.876Z,11.63
2022-08-26T02:27:32.286Z,10.37
2022-08-26T02:29:41.271Z,10.87
2022-08-26T02:31:43.854Z,11.67
2022-08-26T02:33:46.169Z,11.83
2022-08-26T02:35:48.096Z,11.83
2022-08-26T02:37:52.784Z,11.63
2022-08-26T02:39:54.534Z,11.90
2022-08-26T02:41:57.094Z,11.73
2022-08-26T02:43:59.948Z,11.67
2022-08-26T02:46:02.308Z,12.93
2022-08-26T02:48:12.938Z,11.10
2022-08-26T02:50:21.889Z,11.73
2022-08-26T02:52:23.958Z,11.87
2022-08-26T02:54:25.774Z,10.60
2022-08-26T02:56:27.914Z,11.97
2022-08-26T02:58:29.624Z,11.57
2022-08-26T03:00:31.917Z,12.90
2022-08-26T03:02:34.100Z,11.83
2022-08-26T03:04:35.974Z,11.40
2022-08-26T03:06:38.261Z,13.30
2022-08-26T03:08:40.885Z,11.57
2022-08-26T03:10:43.649Z,11.93
2022-08-26T03:12:47.340Z,12.90
2022-08-26T03:14:49.885Z,12.17
2022-08-26T03:16:53.898Z,13.07
2022-08-26T03:18:55.808Z,12.67
2022-08-26T03:20:58.902Z,13.10
2022-08-26T03:23:00.574Z,12.00
2022-08-26T03:25:06.689Z,12.53
2022-08-26T03:27:09.009Z,13.30
2022-08-26T03:29:29.354Z,14.53
2022-08-26T03:31:34.931Z,12.93
2022-08-26T03:33:36.945Z,14.43
2022-08-26T03:35:41.995Z,12.37
2022-08-26T03:37:43.738Z,12.63
2022-08-26T03:39:46.793Z,13.67
2022-08-26T03:41:48.553Z,12.60
2022-08-26T03:43:51.082Z,13.20
2022-08-26T03:45:52.747Z,14.33
2022-08-26T03:47:54.450Z,14.17
2022-08-26T03:50:01.000Z,13.70
2022-08-26T03:52:03.926Z,14.37
2022-08-26T03:54:08.197Z,14.53
2022-08-26T03:56:10.438Z,13.63
2022-08-26T03:58:12.938Z,13.20
2022-08-26T04:00:18.472Z,13.63
2022-08-26T04:02:20.424Z,13.20
2022-08-26T04:04:24.537Z,13.50
2022-08-26T04:06:43.230Z,14.00
2022-08-26T04:08:46.465Z,13.83
2022-08-26T04:10:48.943Z,15.20
2022-08-26T04:12:53.337Z,13.17
2022-08-26T04:14:55.002Z,13.67
2022-08-26T04:16:59.950Z,13.80
2022-08-26T04:19:01.801Z,14.37
2022-08-26T04:21:04.923Z,13.97
2022-08-26T04:23:09.950Z,13.40
2022-08-26T04:25:12.442Z,14.43
2022-08-26T04:27:14.206Z,13.90
2022-08-26T04:29:20.104Z,14.50
2022-08-26T04:31:23.000Z,14.70
2022-08-26T04:33:32.513Z,14.27
2022-08-26T04:35:36.969Z,13.90
2022-08-26T04:37:43.056Z,15.13
2022-08-26T04:39:44.882Z,15.00
2022-08-26T04:41:50.710Z,14.73
2022-08-26T04:43:52.735Z,14.90
2022-08-26T04:45:55.425Z,14.20
2022-08-26T04:47:58.418Z,13.47
2022-08-26T04:50:01.909Z,14.07
2022-08-26T04:52:05.378Z,13.10
2022-08-26T04:54:07.480Z,12.67
2022-08-26T04:56:09.968Z,13.13
2022-08-26T04:58:15.502Z,13.07
2022-08-26T05:00:17.525Z,11.53
2022-08-26T05:02:20.080Z,11.00
2022-08-26T05:04:22.149Z,11.77
2022-08-26T05:06:24.216Z,11.03
2022-08-26T05:08:27.293Z,11.03
2022-08-26T05:10:29.243Z,12.23
2022-08-26T05:12:31.544Z,11.60
2022-08-26T05:14:34.527Z,11.10
2022-08-26T05:16:40.425Z,11.80
2022-08-26T05:18:43.633Z,11.10
2022-08-26T05:20:49.058Z,11.10
2022-08-26T05:22:50.977Z,10.20
2022-08-26T05:24:53.313Z,10.93
2022-08-26T05:26:56.435Z,10.37
2022-08-26T05:29:00.024Z,10.90
2022-08-26T05:31:12.088Z,11.03
2022-08-26T05:33:14.311Z,9.70
2022-08-26T05:35:17.189Z,9.97
2022-08-26T05:37:19.419Z,10.80
2022-08-26T05:39:23.448Z,9.60
2022-08-26T05:41:36.612Z,10.20
2022-08-26T05:43:40.997Z,9.20
2022-08-26T05:45:47.319Z,8.73
2022-08-26T05:47:48.977Z,9.13
2022-08-26T05:49:53.106Z,9.20
2022-08-26T05:51:54.846Z,8.87
2022-08-26T05:53:57.031Z,8.03
2022-08-26T05:56:00.464Z,6.80
2022-08-26T05:58:02.791Z,7.20
2022-08-26T06:00:06.046Z,7.37
2022-08-26T06:02:08.182Z,6.40
2022-08-26T06:04:11.685Z,6.77
2022-08-26T06:06:27.339Z,6.77
2022-08-26T06:08:30.747Z,6.47
2022-08-26T06:10:33.339Z,5.90
2022-08-26T06:12:36.076Z,5.53
2022-08-26T06:14:38.038Z,6.60
2022-08-26T06:16:43.735Z,7.30
2022-08-26T06:18:47.953Z,5.90
2022-08-26T06:20:57.043Z,5.77
2022-08-26T06:23:19.027Z,6.07
2022-08-26T06:25:38.766Z,6.00
2022-08-26T06:27:40.438Z,6.60
2022-08-26T06:29:43.029Z,6.00
2022-08-26T06:31:45.109Z,5.53
2022-08-26T06:33:46.930Z,5.50
2022-08-26T06:35:51.038Z,6.43
2022-08-26T06:37:53.068Z,5.57
2022-08-26T06:39:54.769Z,5.67
2022-08-26T06:41:57.037Z,5.50
2022-08-26T06:44:00.338Z,6.00
2022-08-26T06:46:04.960Z,5.80
2022-08-26T06:48:08.056Z,6.20
2022-08-26T06:50:11.602Z,5.80
2022-08-26T06:52:13.727Z,5.20
2022-08-26T06:54:15.493Z,5.40
2022-08-26T06:56:25.243Z,4.57
2022-08-26T06:58:28.258Z,4.68
2022-08-26T07:00:32.457Z,5.82
2022-08-26T07:02:34.877Z,5.03
2022-08-26T07:04:37.156Z,5.45
2022-08-26T07:06:40.618Z,5.72
2022-08-26T07:08:42.573Z,6.50
2022-08-26T07:10:45.058Z,5.78
2022-08-26T07:12:49.379Z,5.55
2022-08-26T07:14:51.619Z,6.07
2022-08-26T07:16:55.737Z,5.43
2022-08-26T07:18:58.084Z,6.13
2022-08-26T07:21:07.218Z,5.60
2022-08-26T07:23:11.784Z,5.97
2022-08-26T07:25:13.594Z,6.20
2022-08-26T07:27:17.069Z,6.35
2022-08-26T07:29:19.092Z,6.00
2022-08-26T07:31:24.546Z,5.80
2022-08-26T07:33:27.087Z,5.80
2022-08-26T07:35:30.093Z,5.20
2022-08-26T07:37:35.518Z,5.60
2022-08-26T07:39:43.170Z,4.97
2022-08-26T07:41:48.135Z,5.55
2022-08-26T07:43:52.838Z,5.38
2022-08-26T07:45:55.758Z,5.43
2022-08-26T07:47:58.093Z,5.22
2022-08-26T07:50:01.114Z,5.57
2022-08-26T07:52:04.905Z,5.85
2022-08-26T07:54:07.201Z,5.63
2022-08-26T07:56:08.997Z,5.80
2022-08-26T07:58:13.370Z,5.95
2022-08-26T08:00:18.104Z,5.57
2022-08-26T08:02:20.006Z,4.82
2022-08-26T08:04:26.218Z,5.28
2022-08-26T08:06:29.121Z,5.03
2022-08-26T08:08:31.308Z,4.97
2022-08-26T08:10:36.470Z,5.60
2022-08-26T08:12:39.181Z,5.53
2022-08-26T08:14:42.129Z,5.70
2022-08-26T08:16:46.773Z,5.15
2022-08-26T08:18:48.981Z,4.85
2022-08-26T08:20:59.401Z,5.20
2022-08-26T08:23:06.866Z,5.43
2022-08-26T08:25:10.383Z,5.35
2022-08-26T08:27:12.339Z,5.72
2022-08-26T08:29:16.131Z,5.90
2022-08-26T08:31:45.151Z,4.65
2022-08-26T08:33:44.353Z,5.15
2022-08-26T08:35:46.662Z,4.97
2022-08-26T08:37:54.035Z,5.50
2022-08-26T08:39:56.176Z,5.75
2022-08-26T08:42:06.747Z,5.68
2022-08-26T08:44:21.672Z,5.63
2022-08-26T08:46:25.150Z,5.50
2022-08-26T08:48:31.756Z,6.07
2022-08-26T08:50:40.154Z,5.63
2022-08-26T08:52:45.409Z,5.28
2022-08-26T08:54:48.149Z,5.53
2022-08-26T08:57:04.239Z,5.68
2022-08-26T08:59:24.205Z,5.70
2022-08-26T09:01:31.230Z,6.13
2022-08-26T09:04:17.198Z,5.95
2022-08-26T09:06:20.967Z,6.97
2022-08-26T09:08:28.360Z,6.38
2022-08-26T09:10:55.220Z,6.25
2022-08-26T09:12:59.981Z,6.50
2022-08-26T09:15:16.948Z,6.22
2022-08-26T09:18:00.194Z,6.57
2022-08-26T09:20:33.585Z,6.20
2022-08-26T09:22:38.188Z,6.63
2022-08-26T09:24:48.561Z,6.43
2022-08-26T09:26:53.166Z,6.47
2022-08-26T09:28:55.299Z,6.30
2022-08-26T09:31:21.820Z,7.20
2022-08-26T09:33:30.379Z,6.35
2022-08-26T09:35:35.972Z,6.45
2022-08-26T09:39:55.006Z,6.78
2022-08-26T09:42:23.009Z,6.53
2022-08-26T09:44:25.202Z,6.85
2022-08-26T09:46:28.727Z,6.35
2022-08-26T09:48:36.634Z,6.72
2022-08-26T09:50:57.310Z,6.40
2022-08-26T09:53:25.127Z,6.47
2022-08-26T09:55:31.209Z,7.10
2022-08-26T09:57:35.682Z,7.65
2022-08-26T09:59:38.013Z,6.88
2022-08-26T10:01:44.887Z,6.80
2022-08-26T10:03:47.264Z,7.65
2022-08-26T10:06:07.294Z,7.32
2022-08-26T10:08:24.773Z,7.05
2022-08-26T10:10:31.138Z,6.72
2022-08-26T10:12:39.250Z,6.55
2022-08-26T10:14:49.596Z,7.20
2022-08-26T10:17:06.951Z,6.72
2022-08-26T10:19:15.103Z,6.88
2022-08-26T10:21:56.240Z,6.68
2022-08-26T10:24:02.169Z,5.80
2022-08-26T10:26:26.262Z,6.03
2022-08-26T10:28:41.461Z,5.60
2022-08-26T10:30:58.269Z,5.30
2022-08-26T10:33:13.222Z,4.30
2022-08-26T10:35:17.792Z,4.30
2022-08-26T10:37:23.237Z,4.95
2022-08-26T10:39:56.935Z,4.22
2022-08-26T10:42:05.446Z,4.50
2022-08-26T10:44:10.388Z,4.80
2022-08-26T10:46:20.648Z,5.05
2022-08-26T10:48:35.467Z,5.75
2022-08-26T10:50:41.591Z,5.80
2022-08-26T10:53:08.762Z,5.13
2022-08-26T10:55:22.043Z,5.90
2022-08-26T10:57:47.783Z,5.53
2022-08-26T11:00:47.426Z,5.90
2022-08-26T11:02:52.586Z,5.53
2022-08-26T11:05:03.388Z,5.88
2022-08-26T11:07:40.865Z,6.13
2022-08-26T11:09:48.285Z,5.10
2022-08-26T11:11:52.230Z,4.75
2022-08-26T11:13:57.291Z,5.18
2022-08-26T11:16:01.148Z,5.05
2022-08-26T11:18:12.329Z,5.25
2022-08-26T11:20:23.852Z,5.68
2022-08-26T11:22:28.825Z,5.57
2022-08-26T11:24:53.266Z,5.38
2022-08-26T11:26:56.675Z,4.78
2022-08-26T11:29:00.114Z,6.15
2022-08-26T11:31:09.907Z,5.68
2022-08-26T11:33:44.298Z,5.38
2022-08-26T11:35:48.082Z,5.30
2022-08-26T11:37:57.382Z,5.38
2022-08-26T11:40:01.649Z,6.07
2022-08-26T11:42:33.601Z,6.05
2022-08-26T11:44:41.508Z,6.32
2022-08-26T11:46:59.561Z,6.35
2022-08-26T11:49:06.496Z,6.55
2022-08-26T11:51:13.482Z,6.75
2022-08-26T11:53:20.062Z,6.72
2022-08-26T11:55:25.286Z,7.07
2022-08-26T11:57:30.053Z,7.00
2022-08-26T11:59:40.353Z,6.13
2022-08-26T12:01:46.329Z,7.28
2022-08-26T12:03:52.128Z,6.75
2022-08-26T12:05:55.393Z,7.05
2022-08-26T12:08:03.099Z,7.47
2022-08-26T12:10:08.937Z,8.30
2022-08-26T12:12:31.800Z,10.45
2022-08-26T12:14:37.420Z,8.27
2022-08-26T12:16:42.406Z,8.65
2022-08-26T12:18:45.054Z,8.20
2022-08-26T12:20:50.072Z,10.52
2022-08-26T12:22:54.319Z,8.35
2022-08-26T12:24:59.787Z,9.00
2022-08-26T12:27:31.416Z,8.10
2022-08-26T12:29:33.942Z,8.35
2022-08-26T12:31:40.492Z,9.00
2022-08-26T12:33:43.114Z,7.75
2022-08-26T12:35:44.862Z,7.85
2022-08-26T12:37:52.544Z,8.95
2022-08-26T12:39:54.635Z,8.18
2022-08-26T12:42:21.353Z,8.55
2022-08-26T12:44:54.054Z,7.53
2022-08-26T12:47:10.043Z,7.75
2022-08-26T12:49:18.848Z,8.30
2022-08-26T12:51:25.385Z,7.90
2022-08-26T12:53:33.374Z,7.85
2022-08-26T12:55:36.292Z,8.05
2022-08-26T12:57:38.378Z,7.57
2022-08-26T12:59:41.539Z,6.85
2022-08-26T13:01:45.745Z,7.60
2022-08-26T13:03:50.374Z,7.85
2022-08-26T13:05:52.522Z,7.97
2022-08-26T13:08:27.129Z,7.60
2022-08-26T13:10:37.452Z,7.32
2022-08-26T13:12:41.033Z,7.80
2022-08-26T13:14:43.357Z,7.93
2022-08-26T13:16:47.813Z,7.80
2022-08-26T13:18:56.190Z,7.28
2022-08-26T13:20:58.389Z,6.72
2022-08-26T13:23:00.190Z,7.65
2022-08-26T13:25:02.241Z,7.93
2022-08-26T13:27:06.294Z,6.80
2022-08-26T13:29:10.499Z,7.70
2022-08-26T13:31:13.594Z,6.90
2022-08-26T13:33:20.481Z,7.30
2022-08-26T13:35:22.287Z,6.45
2022-08-26T13:37:34.751Z,5.78
2022-08-26T13:39:38.385Z,6.15
2022-08-26T13:41:40.320Z,6.28
2022-08-26T13:43:49.406Z,6.38
2022-08-26T13:45:51.761Z,7.05
2022-08-26T13:47:53.462Z,6.20
2022-08-26T13:49:56.498Z,6.70
2022-08-26T13:52:00.573Z,6.15
2022-08-26T13:54:03.842Z,5.50
2022-08-26T13:56:08.015Z,6.18
2022-08-26T13:58:13.289Z,5.40
2022-08-26T14:00:18.189Z,5.50
2022-08-26T14:02:23.022Z,5.65
2022-08-26T14:04:27.265Z,6.43
2022-08-26T14:06:30.678Z,6.45
2022-08-26T14:08:33.174Z,5.68
2022-08-26T14:10:36.725Z,5.20
2022-08-26T14:12:40.441Z,5.47
2022-08-26T14:14:44.857Z,6.30
2022-08-26T14:16:59.072Z,5.43
2022-08-26T14:19:04.442Z,5.88
2022-08-26T14:21:09.999Z,5.28
2022-08-26T14:23:20.645Z,6.03
2022-08-26T14:25:23.578Z,5.00
2022-08-26T14:27:26.489Z,6.72
2022-08-26T14:29:30.406Z,5.93
2022-08-26T14:31:34.643Z,5.32
2022-08-26T14:33:38.598Z,6.18
2022-08-26T14:35:41.273Z,5.68
2022-08-26T14:37:52.175Z,6.68
2022-08-26T14:39:55.645Z,6.63
2022-08-26T14:41:57.905Z,6.25
2022-08-26T14:44:08.607Z,6.85
2022-08-26T14:46:11.155Z,6.20
2022-08-26T14:48:13.389Z,7.45
2022-08-26T14:50:20.719Z,6.43
2022-08-26T14:52:22.830Z,7.18
2022-08-26T14:54:24.995Z,6.82
2022-08-26T14:56:35.659Z,6.68
2022-08-26T14:58:37.603Z,7.13
2022-08-26T15:00:39.539Z,7.25
2022-08-26T15:02:41.887Z,6.68
2022-08-26T15:04:45.124Z,7.85
2022-08-26T15:06:48.026Z,8.50
2022-08-26T15:08:50.873Z,7.47
2022-08-26T15:10:53.424Z,8.27
2022-08-26T15:12:55.835Z,8.02
2022-08-26T15:14:59.738Z,7.93
2022-08-26T15:17:03.654Z,8.27
2022-08-26T15:19:06.341Z,8.32
2022-08-26T15:21:08.539Z,7.75
2022-08-26T15:23:11.184Z,8.30
2022-08-26T15:25:13.361Z,8.02
2022-08-26T15:27:16.509Z,8.30
2022-08-26T15:29:20.014Z,8.40
2022-08-26T15:31:31.771Z,7.75
2022-08-26T15:33:36.972Z,8.10
2022-08-26T15:35:40.399Z,8.50
2022-08-26T15:37:45.422Z,8.35
2022-08-26T15:39:48.493Z,8.27
2022-08-26T15:41:52.112Z,8.77
2022-08-26T15:43:56.256Z,8.23
2022-08-26T15:46:01.888Z,7.43
2022-08-26T15:48:05.075Z,8.05
2022-08-26T15:50:07.916Z,8.60
2022-08-26T15:52:10.781Z,8.82
2022-08-26T15:54:13.252Z,7.90
2022-08-26T15:56:18.524Z,9.05
2022-08-26T15:58:26.425Z,8.55
2022-08-26T16:00:28.825Z,8.95
2022-08-26T16:02:32.386Z,8.65
2022-08-26T16:04:35.619Z,8.13
2022-08-26T16:06:40.454Z,9.27
2022-08-26T16:08:44.010Z,9.32
2022-08-26T16:10:50.687Z,8.43
2022-08-26T16:12:54.333Z,9.48
2022-08-26T16:14:56.126Z,9.02
2022-08-26T16:16:58.684Z,7.75
2022-08-26T16:19:06.865Z,8.35
2022-08-26T16:21:19.539Z,13.60
2022-08-26T16:23:22.573Z,10.52
2022-08-26T16:25:24.610Z,8.90
2022-08-26T16:27:27.777Z,7.70
2022-08-26T16:29:32.018Z,6.13
2022-08-26T16:31:37.916Z,5.93
2022-08-26T16:33:40.914Z,5.27
2022-08-26T16:35:43.457Z,5.40
2022-08-26T16:37:46.603Z,5.47
2022-08-26T16:39:50.629Z,5.63
2022-08-26T16:41:53.723Z,6.03
2022-08-26T16:43:56.008Z,6.53
2022-08-26T16:45:59.760Z,5.87
2022-08-26T16:48:02.556Z,6.30
2022-08-26T16:50:06.923Z,5.73
2022-08-26T16:52:10.504Z,6.30
2022-08-26T16:54:13.580Z,6.33
2022-08-26T16:56:17.584Z,7.23
2022-08-26T16:58:22.273Z,6.17
2022-08-26T17:00:31.303Z,6.90
2022-08-26T17:02:36.830Z,6.00
2022-08-26T17:04:39.590Z,5.40
2022-08-26T17:06:41.741Z,6.20
2022-08-26T17:08:46.366Z,6.13
2022-08-26T17:10:48.105Z,5.80
2022-08-26T17:12:49.997Z,5.60
2022-08-26T17:14:54.374Z,5.83
2022-08-26T17:16:57.202Z,5.17
2022-08-26T17:19:00.750Z,5.63
2022-08-26T17:21:06.620Z,5.10
2022-08-26T17:23:08.598Z,4.87
2022-08-26T17:25:16.056Z,4.83
2022-08-26T17:27:18.774Z,3.67
2022-08-26T17:29:21.663Z,4.10
2022-08-26T17:31:24.277Z,3.70
2022-08-26T17:33:26.852Z,3.30
2022-08-26T17:35:28.979Z,3.60
2022-08-26T17:37:33.087Z,3.10
2022-08-26T17:39:42.451Z,2.93
2022-08-26T17:41:44.782Z,2.80
2022-08-26T17:43:46.502Z,2.70
2022-08-26T17:45:48.194Z,2.80
2022-08-26T17:47:52.505Z,2.53
2022-08-26T17:49:57.127Z,2.20
2022-08-26T17:52:00.029Z,2.40
2022-08-26T17:54:02.273Z,2.30
2022-08-26T17:56:09.728Z,2.40
2022-08-26T17:58:11.710Z,2.50
2022-08-26T18:00:21.297Z,2.53
2022-08-26T18:02:23.959Z,2.67
2022-08-26T18:04:26.105Z,2.60
2022-08-26T18:06:28.600Z,2.60
2022-08-26T18:08:30.536Z,2.60
2022-08-26T18:10:32.720Z,2.70
2022-08-26T18:12:37.960Z,2.80
2022-08-26T18:14:41.044Z,3.23
2022-08-26T18:16:43.692Z,2.80
2022-08-26T18:18:48.842Z,3.83
2022-08-26T18:20:51.966Z,4.07
2022-08-26T18:23:03.951Z,5.30
2022-08-26T18:25:07.771Z,5.77
2022-08-26T18:27:09.677Z,5.43
2022-08-26T18:29:12.780Z,6.30
2022-08-26T18:31:15.754Z,6.37
2022-08-26T18:33:18.965Z,6.60
2022-08-26T18:35:21.469Z,7.07
2022-08-26T18:37:27.976Z,7.23
2022-08-26T18:39:33.727Z,7.37
2022-08-26T18:41:42.552Z,7.60
2022-08-26T18:43:44.466Z,6.23
2022-08-26T18:45:47.323Z,7.20
2022-08-26T18:47:49.197Z,7.97
2022-08-26T18:49:51.922Z,7.17
2022-08-26T18:51:56.393Z,8.37
2022-08-26T18:54:00.026Z,7.53
2022-08-26T18:56:03.931Z,6.43
2022-08-26T18:58:06.397Z,7.77
2022-08-26T19:00:10.331Z,6.30
2022-08-26T19:02:12.650Z,7.40
2022-08-26T19:04:15.874Z,8.40
2022-08-26T19:06:21.489Z,8.03
2022-08-26T19:08:23.182Z,7.90
2022-08-26T19:10:25.473Z,9.50
2022-08-26T19:12:28.548Z,10.27
2022-08-26T19:14:32.654Z,10.17
2022-08-26T19:16:36.173Z,10.70
2022-08-26T19:18:38.106Z,11.60
2022-08-26T19:20:47.004Z,12.43
2022-08-26T19:22:49.259Z,12.00
2022-08-26T19:24:57.920Z,11.63
2022-08-26T19:27:02.637Z,11.33
2022-08-26T19:29:05.760Z,10.63
2022-08-26T19:31:10.564Z,11.77
2022-08-26T19:33:14.586Z,11.40
2022-08-26T19:35:17.495Z,11.50
2022-08-26T19:37:20.675Z,11.07
2022-08-26T19:39:23.516Z,10.10
2022-08-26T19:41:36.574Z,11.50
2022-08-26T19:43:39.710Z,11.90
2022-08-26T19:45:42.805Z,10.77
2022-08-26T19:47:46.291Z,10.97
2022-08-26T19:49:49.898Z,10.07
2022-08-26T19:51:54.074Z,10.70
2022-08-26T19:53:58.882Z,11.60
2022-08-26T19:56:01.754Z,11.00
2022-08-26T19:58:05.738Z,10.90
2022-08-26T20:00:12.317Z,11.27
2022-08-26T20:02:16.146Z,10.67
2022-08-26T20:04:18.086Z,12.00
2022-08-26T20:06:20.136Z,11.20
2022-08-26T20:08:22.829Z,12.60
2022-08-26T20:10:24.697Z,12.30
2022-08-26T20:12:27.645Z,13.13
2022-08-26T20:14:30.698Z,10.63
2022-08-26T20:16:33.784Z,10.57
2022-08-26T20:18:54.748Z,11.83
2022-08-26T20:21:15.238Z,11.43
2022-08-26T20:23:17.688Z,12.10
2022-08-26T20:25:20.451Z,12.83
2022-08-26T20:27:38.375Z,11.97
2022-08-26T20:29:41.705Z,13.97
2022-08-26T20:31:44.641Z,15.03
2022-08-26T20:33:48.174Z,15.23
2022-08-26T20:35:50.741Z,15.00
2022-08-26T20:37:57.341Z,16.90
2022-08-26T20:40:00.762Z,13.70
2022-08-26T20:42:03.716Z,15.37
2022-08-26T20:44:06.936Z,14.47
2022-08-26T20:46:18.222Z,16.23
2022-08-26T20:48:21.995Z,18.40
2022-08-26T20:50:23.851Z,17.67
2022-08-26T20:52:26.857Z,18.03
2022-08-26T20:54:30.194Z,16.70
2022-08-26T20:56:32.758Z,18.30
2022-08-26T20:58:35.121Z,16.47
2022-08-26T21:00:40.221Z,17.97
2022-08-26T21:02:43.730Z,17.13
2022-08-26T21:04:47.838Z,18.80
2022-08-26T21:06:52.604Z,18.87
2022-08-26T21:08:55.729Z,17.27
2022-08-26T21:10:58.038Z,18.10
2022-08-26T21:13:00.641Z,19.20
2022-08-26T21:15:04.733Z,19.77
2022-08-26T21:17:08.085Z,17.47
2022-08-26T21:19:12.441Z,17.23
2022-08-26T21:21:15.857Z,17.70
2022-08-26T21:23:18.680Z,16.50
2022-08-26T21:25:20.696Z,16.17
2022-08-26T21:27:26.207Z,15.90
2022-08-26T21:29:28.749Z,16.30
2022-08-26T21:31:31.898Z,16.93
2022-08-26T21:33:34.134Z,15.60
2022-08-26T21:35:36.746Z,15.60
2022-08-26T21:37:39.449Z,14.90
2022-08-26T21:39:41.563Z,14.00
2022-08-26T21:41:45.788Z,14.27
2022-08-26T21:43:50.837Z,15.23
2022-08-26T21:45:53.714Z,15.83
2022-08-26T21:47:55.898Z,16.90
2022-08-26T21:49:58.927Z,15.87
2022-08-26T21:52:04.796Z,16.67
2022-08-26T21:54:11.009Z,17.40
2022-08-26T21:56:16.743Z,16.83
2022-08-26T21:58:20.317Z,18.03
2022-08-26T22:00:24.758Z,17.87
2022-08-26T22:02:27.405Z,19.63
2022-08-26T22:04:30.126Z,16.80
2022-08-26T22:06:33.769Z,18.00
2022-08-26T22:08:36.762Z,16.40
2022-08-26T22:10:41.441Z,16.43
2022-08-26T22:12:44.784Z,17.43
2022-08-26T22:14:47.083Z,15.30
2022-08-26T22:16:50.869Z,16.43
2022-08-26T22:18:53.602Z,16.33
2022-08-26T22:21:00.960Z,17.47
2022-08-26T22:23:02.984Z,16.00
2022-08-26T22:25:05.461Z,16.13
2022-08-26T22:27:08.788Z,17.60
2022-08-26T22:29:10.814Z,17.47
2022-08-26T22:31:14.617Z,17.17
2022-08-26T22:33:20.188Z,14.30
2022-08-26T22:35:29.160Z,14.70
2022-08-26T22:37:32.888Z,13.97
2022-08-26T22:39:35.776Z,12.33
2022-08-26T22:41:37.773Z,11.93
2022-08-26T22:43:39.718Z,12.40
2022-08-26T22:45:45.712Z,13.27
2022-08-26T22:47:47.717Z,12.07
2022-08-26T22:49:49.606Z,11.50
2022-08-26T22:51:53.226Z,11.10
2022-08-26T22:53:55.804Z,10.50
2022-08-26T22:55:58.881Z,10.73
2022-08-26T22:58:04.322Z,10.33
2022-08-26T23:00:07.794Z,12.27
2022-08-26T23:02:13.509Z,11.00
2022-08-26T23:04:16.145Z,10.50
2022-08-26T23:06:19.131Z,11.90
2022-08-26T23:08:27.224Z,11.97
2022-08-26T23:10:29.698Z,12.97
2022-08-26T23:12:33.002Z,13.80
2022-08-26T23:14:35.262Z,15.67
2022-08-26T23:16:41.496Z,14.00
2022-08-26T23:18:43.807Z,14.53
2022-08-26T23:20:47.801Z,15.70
2022-08-26T23:22:49.760Z,16.43
2022-08-26T23:24:53.826Z,17.03
2022-08-26T23:26:56.463Z,17.00
2022-08-26T23:28:58.543Z,18.37
2022-08-26T23:31:00.817Z,18.23
2022-08-26T23:33:03.014Z,16.90
2022-08-26T23:35:06.031Z,14.40
2022-08-26T23:37:09.129Z,14.93
2022-08-26T23:39:11.822Z,16.93
2022-08-26T23:41:13.545Z,17.43
2022-08-26T23:43:18.722Z,20.43
2022-08-26T23:45:21.954Z,19.80
2022-08-26T23:47:23.735Z,19.57
2022-08-26T23:49:26.252Z,20.67
2022-08-26T23:51:47.012Z,21.00
2022-08-26T23:53:50.834Z,21.50
2022-08-26T23:55:52.954Z,20.80
2022-08-26T23:57:54.848Z,24.60
2022-08-26T23:59:56.533Z,25.27
